Accueil
METAR-TAF:

METAR-TAF

Aéroports :

Diepholz, Allemagne

latitude: 52-35N, longitude: 008-21E, altitude: 39 m

Observation

Le bulletin a été fait il y a 13 heures et 32 minutes, à 13:20 UTC
Vent 8 kt de ouest/sud-ouest
Température 9°C
Humidité 53%
Pression 1017 hPa
Visibilité 10 km ou plus
Quelques nuages à une hauteur de 4200 ft
Nuages fragmentés à une hauteur de 6200 ft

METAR: ETND 231320Z 24008KT 9999 FEW042 BKN062 09/M00 Q1017 BLU

Heure: 04:52 (02:52 UTC)

Prévision

Le bulletin a été fait il y a 16 heures et 40 minutes, à 10:12 UTC
Prévision valable du 23 à 11 UTC au 23 à 20 UTC
Vent 5 kt de ouest
Visibilité 10 km ou plus
Nuages épars à une hauteur de 3000 ft
Nuages fragmentés à une hauteur de 5000 ft

TAF: ETND 231012Z 2311/2320 26005KT 9999 NSW SCT030 BKN050

Observations et prévisions météorologiques de plus de 4000 aéroports (messages METAR et TAF).

Les stations disponibles sont représentées par des disques jaunes et rouges sur la carte.

Passer la souris dessus pour voir le nom de la station.

Cliquer dessus pour voir les observations et prévisions météorologiques.

Pour changer de carte: cliquez sur les boutons verts avec une croix noire pour zoomer, sur le bouton vert avec un tiret pour effectuer un zoom arrière, ou sur les flèches vertes pour les cartes adjacentes.


METAR-TAF: